Terminal Aerodrome Forecast
Issued by NWS Grand Forks, ND

Home | Current Version | Previous Version | Text Only | Print | Product List | Glossary On
Versions: 1 2 3 4 5 6 7 8 9 10 11 12 13 14 15 16 17 18
000
FTUS43 KFGF 290926 AAA
TAFFAR
TAF AMD
KFAR 290926Z 2909/3006 36020G30KT P6SM OVC011
      TEMPO 2909/2911 -RA
     FM291100 35020G30KT P6SM BKN015
     FM291500 36018G25KT P6SM BKN030
     FM300100 35013KT P6SM SCT030=

USA.gov is the U.S. government's official web portal to all federal, state and local government web resources and services.